METAR AND TAF INFORMATION
METAR FOR KPTB
ADDS - METARS form results

(1957 UTC 18 January 2019)
Data provider http://aviationweather.gov/metar/data/
 
METAR text: KPTB 181955Z AUTO 32003KT 10SM CLR 12/01 A3007 RMK AO2 T01240014
Conditions at: KPTB (PETERSBURG , VA, US) observed 1955 UTC 18 January 2019
Temperature: 12.4°C (54°F)
Dewpoint: 1.4°C (35°F) [RH = 47%]
Pressure (altimeter): 30.07 inches Hg (1018.4 mb)
Winds: from the NW (320 degrees) at 3 MPH (3 knots; 1.5 m/s)
Visibility: 10 or more miles (16+ km)
Ceiling: at least 12,000 feet AGL
Clouds: sky clear below 12,000 feet AGL
Weather: automated observation with no human augmentation;
there may or may not be significant weather present at this time

METAR text: KPTB 181935Z AUTO 32006KT 10SM CLR 12/02 A3006 RMK AO2 T01230015
Conditions at: KPTB (PETERSBURG , VA, US) observed 1935 UTC 18 January 2019
Temperature: 12.3°C (54°F)
Dewpoint: 1.5°C (35°F) [RH = 48%]
Pressure (altimeter): 30.06 inches Hg (1018.0 mb)
Winds: from the NW (320 degrees) at 7 MPH (6 knots; 3.1 m/s)
Visibility: 10 or more miles (16+ km)
Ceiling: at least 12,000 feet AGL
Clouds: sky clear below 12,000 feet AGL
Weather: automated observation with no human augmentation;
there may or may not be significant weather present at this time

METAR text: KPTB 181915Z AUTO 34003KT 10SM CLR 12/02 A3006 RMK AO2 T01210015
Conditions at: KPTB (PETERSBURG , VA, US) observed 1915 UTC 18 January 2019
Temperature: 12.1°C (54°F)
Dewpoint: 1.5°C (35°F) [RH = 48%]
Pressure (altimeter): 30.06 inches Hg (1018.0 mb)
Winds: from the NNW (340 degrees) at 3 MPH (3 knots; 1.5 m/s)
Visibility: 10 or more miles (16+ km)
Ceiling: at least 12,000 feet AGL
Clouds: sky clear below 12,000 feet AGL
Weather: automated observation with no human augmentation;
there may or may not be significant weather present at this time

 AIRPORT MAP

 RUNWAY INFORMATION
Runway 05 Runway length 5001 ft Runway width 100 ft
Runway elevation 193 ft Runway displaced threshold 0 ft Runway heading 43
Runway 23 Runway length 5001 ft Runway width 100 ft
Runway elevation 190 ft Runway displaced threshold 0 ft Runway heading 223
Runway 14 Runway length 3061 ft Runway width 50 ft
Runway elevation 186 ft Runway displaced threshold 0 ft Runway heading 133
Runway 32 Runway length 3061 ft Runway width 50 ft
Runway elevation 186 ft Runway displaced threshold 0 ft Runway heading 313

 AIRPORT FREQUENCIES
Type APP Name POTOMAC AP Frequency 134.7 MHZ
Type AWOS Name AWOS 3 Frequency 133.325 MHZ
Type DEP Name POTOMAC DE Frequency 134.7 MHZ
Type UNIC Name CTAF/UNICO Frequency 122.7 MHZ

 AIRPORT NEAR NAVIGATION AIDS
Type NDB Name Petersburg Frequency 284 KHZ



Powered by Virtual Airlines Manager [v2.6.2]